sensor_id;sensor_type;location;lat;lon;timestamp;temperature;humidity
1988;DHT22;12775;46.994;15.498;2023-12-20T00:01:31;1.90;96.30
1988;DHT22;12775;46.994;15.498;2023-12-20T00:03:58;1.90;96.50
1988;DHT22;12775;46.994;15.498;2023-12-20T00:06:25;1.80;96.80
1988;DHT22;12775;46.994;15.498;2023-12-20T00:08:53;1.90;96.50
1988;DHT22;12775;46.994;15.498;2023-12-20T00:11:20;1.80;96.50
1988;DHT22;12775;46.994;15.498;2023-12-20T00:13:48;1.90;96.30
1988;DHT22;12775;46.994;15.498;2023-12-20T00:16:15;1.80;96.30
1988;DHT22;12775;46.994;15.498;2023-12-20T00:18:42;1.90;96.20
1988;DHT22;12775;46.994;15.498;2023-12-20T00:21:08;1.90;96.10
1988;DHT22;12775;46.994;15.498;2023-12-20T00:23:35;1.90;95.90
1988;DHT22;12775;46.994;15.498;2023-12-20T00:26:02;1.90;96.10
1988;DHT22;12775;46.994;15.498;2023-12-20T00:28:28;1.90;96.00
1988;DHT22;12775;46.994;15.498;2023-12-20T00:30:55;1.90;95.80
1988;DHT22;12775;46.994;15.498;2023-12-20T00:33:23;1.90;95.70
1988;DHT22;12775;46.994;15.498;2023-12-20T00:35:51;1.90;95.60
1988;DHT22;12775;46.994;15.498;2023-12-20T00:38:19;1.90;94.90
1988;DHT22;12775;46.994;15.498;2023-12-20T00:40:46;1.90;94.90
1988;DHT22;12775;46.994;15.498;2023-12-20T00:43:14;1.90;95.30
1988;DHT22;12775;46.994;15.498;2023-12-20T00:45:41;1.90;95.00
1988;DHT22;12775;46.994;15.498;2023-12-20T00:48:08;1.80;95.00
1988;DHT22;12775;46.994;15.498;2023-12-20T00:50:36;1.80;95.10
1988;DHT22;12775;46.994;15.498;2023-12-20T00:53:03;1.80;95.00
1988;DHT22;12775;46.994;15.498;2023-12-20T00:55:30;1.80;95.30
1988;DHT22;12775;46.994;15.498;2023-12-20T00:57:56;1.80;95.40
1988;DHT22;12775;46.994;15.498;2023-12-20T01:00:23;1.80;95.10
1988;DHT22;12775;46.994;15.498;2023-12-20T01:02:50;1.70;94.90
1988;DHT22;12775;46.994;15.498;2023-12-20T01:05:18;1.60;95.00
1988;DHT22;12775;46.994;15.498;2023-12-20T01:07:45;1.60;95.00
1988;DHT22;12775;46.994;15.498;2023-12-20T01:10:12;1.60;95.20
1988;DHT22;12775;46.994;15.498;2023-12-20T01:12:40;1.60;95.20
1988;DHT22;12775;46.994;15.498;2023-12-20T01:15:08;1.60;95.20
1988;DHT22;12775;46.994;15.498;2023-12-20T01:17:36;1.50;95.20
1988;DHT22;12775;46.994;15.498;2023-12-20T01:20:04;1.50;95.20
1988;DHT22;12775;46.994;15.498;2023-12-20T01:22:31;1.50;95.10
1988;DHT22;12775;46.994;15.498;2023-12-20T01:24:58;1.50;94.80
1988;DHT22;12775;46.994;15.498;2023-12-20T01:27:25;1.50;94.80
1988;DHT22;12775;46.994;15.498;2023-12-20T01:29:53;1.50;94.70
1988;DHT22;12775;46.994;15.498;2023-12-20T01:32:20;1.50;94.70
1988;DHT22;12775;46.994;15.498;2023-12-20T01:34:47;1.40;94.60
1988;DHT22;12775;46.994;15.498;2023-12-20T01:37:15;1.30;95.00
1988;DHT22;12775;46.994;15.498;2023-12-20T01:39:42;1.30;95.30
1988;DHT22;12775;46.994;15.498;2023-12-20T01:42:09;1.30;95.50
1988;DHT22;12775;46.994;15.498;2023-12-20T01:44:37;1.30;95.40
1988;DHT22;12775;46.994;15.498;2023-12-20T01:47:04;1.30;95.80
1988;DHT22;12775;46.994;15.498;2023-12-20T01:49:31;1.30;95.70
1988;DHT22;12775;46.994;15.498;2023-12-20T01:51:59;1.30;95.50
1988;DHT22;12775;46.994;15.498;2023-12-20T01:54:26;1.30;95.60
1988;DHT22;12775;46.994;15.498;2023-12-20T01:56:54;1.30;95.40
1988;DHT22;12775;46.994;15.498;2023-12-20T01:59:21;1.30;95.30
1988;DHT22;12775;46.994;15.498;2023-12-20T02:01:48;1.30;95.10
1988;DHT22;12775;46.994;15.498;2023-12-20T02:04:16;1.40;94.70
1988;DHT22;12775;46.994;15.498;2023-12-20T02:06:44;1.40;94.80
1988;DHT22;12775;46.994;15.498;2023-12-20T02:09:11;1.30;94.90
1988;DHT22;12775;46.994;15.498;2023-12-20T02:11:39;1.30;94.90
1988;DHT22;12775;46.994;15.498;2023-12-20T02:14:06;1.30;94.80
1988;DHT22;12775;46.994;15.498;2023-12-20T02:16:33;1.30;94.40
1988;DHT22;12775;46.994;15.498;2023-12-20T02:19:03;1.30;94.10
1988;DHT22;12775;46.994;15.498;2023-12-20T02:21:32;1.20;94.70
1988;DHT22;12775;46.994;15.498;2023-12-20T02:23:59;1.20;94.70
1988;DHT22;12775;46.994;15.498;2023-12-20T02:26:26;1.10;95.00
1988;DHT22;12775;46.994;15.498;2023-12-20T02:28:54;1.10;95.40
1988;DHT22;12775;46.994;15.498;2023-12-20T02:31:22;1.10;95.00
1988;DHT22;12775;46.994;15.498;2023-12-20T02:33:49;1.10;95.00
1988;DHT22;12775;46.994;15.498;2023-12-20T02:36:16;1.10;95.00
1988;DHT22;12775;46.994;15.498;2023-12-20T02:38:44;1.10;94.90
1988;DHT22;12775;46.994;15.498;2023-12-20T02:41:11;1.10;95.10
1988;DHT22;12775;46.994;15.498;2023-12-20T02:43:39;1.00;95.00
1988;DHT22;12775;46.994;15.498;2023-12-20T02:46:06;1.10;95.00
1988;DHT22;12775;46.994;15.498;2023-12-20T02:48:33;1.10;95.10
1988;DHT22;12775;46.994;15.498;2023-12-20T02:51:01;1.10;94.90
1988;DHT22;12775;46.994;15.498;2023-12-20T02:53:28;1.10;95.20
1988;DHT22;12775;46.994;15.498;2023-12-20T02:55:56;1.10;95.00
1988;DHT22;12775;46.994;15.498;2023-12-20T02:58:24;1.10;94.60
1988;DHT22;12775;46.994;15.498;2023-12-20T03:00:51;1.00;94.40
1988;DHT22;12775;46.994;15.498;2023-12-20T03:03:18;1.00;94.80
1988;DHT22;12775;46.994;15.498;2023-12-20T03:05:46;0.90;95.00
1988;DHT22;12775;46.994;15.498;2023-12-20T03:08:13;0.80;95.00
1988;DHT22;12775;46.994;15.498;2023-12-20T03:10:40;0.80;95.00
1988;DHT22;12775;46.994;15.498;2023-12-20T03:13:08;0.70;95.10
1988;DHT22;12775;46.994;15.498;2023-12-20T03:15:35;0.70;94.80
1988;DHT22;12775;46.994;15.498;2023-12-20T03:18:03;0.70;95.20
1988;DHT22;12775;46.994;15.498;2023-12-20T03:20:30;0.60;95.50
1988;DHT22;12775;46.994;15.498;2023-12-20T03:22:57;0.60;96.20
1988;DHT22;12775;46.994;15.498;2023-12-20T03:25:25;0.60;95.90
1988;DHT22;12775;46.994;15.498;2023-12-20T03:27:52;0.70;95.90
1988;DHT22;12775;46.994;15.498;2023-12-20T03:30:19;0.70;96.00
1988;DHT22;12775;46.994;15.498;2023-12-20T03:32:47;0.70;95.70
1988;DHT22;12775;46.994;15.498;2023-12-20T03:35:14;0.80;95.10
1988;DHT22;12775;46.994;15.498;2023-12-20T03:37:42;0.80;94.80
1988;DHT22;12775;46.994;15.498;2023-12-20T03:40:09;0.80;94.80
1988;DHT22;12775;46.994;15.498;2023-12-20T03:42:37;0.80;95.10
1988;DHT22;12775;46.994;15.498;2023-12-20T03:45:04;0.80;95.10
1988;DHT22;12775;46.994;15.498;2023-12-20T03:47:30;0.80;94.70
1988;DHT22;12775;46.994;15.498;2023-12-20T03:49:58;0.80;95.20
1988;DHT22;12775;46.994;15.498;2023-12-20T03:52:25;0.80;95.20
1988;DHT22;12775;46.994;15.498;2023-12-20T03:54:53;0.90;94.70
1988;DHT22;12775;46.994;15.498;2023-12-20T03:57:20;0.90;94.50
1988;DHT22;12775;46.994;15.498;2023-12-20T03:59:47;0.80;94.70
1988;DHT22;12775;46.994;15.498;2023-12-20T04:02:15;0.70;94.90
1988;DHT22;12775;46.994;15.498;2023-12-20T04:04:42;0.70;95.30
1988;DHT22;12775;46.994;15.498;2023-12-20T04:07:09;0.70;95.30
1988;DHT22;12775;46.994;15.498;2023-12-20T04:09:37;0.70;95.10
1988;DHT22;12775;46.994;15.498;2023-12-20T04:12:05;0.70;95.00
1988;DHT22;12775;46.994;15.498;2023-12-20T04:14:33;0.70;95.20
1988;DHT22;12775;46.994;15.498;2023-12-20T04:17:00;0.60;95.00
1988;DHT22;12775;46.994;15.498;2023-12-20T04:19:28;0.60;95.30
1988;DHT22;12775;46.994;15.498;2023-12-20T04:21:55;0.60;94.90
1988;DHT22;12775;46.994;15.498;2023-12-20T04:24:23;0.60;94.90
1988;DHT22;12775;46.994;15.498;2023-12-20T04:26:50;0.60;94.90
1988;DHT22;12775;46.994;15.498;2023-12-20T04:29:17;0.60;94.70
1988;DHT22;12775;46.994;15.498;2023-12-20T04:31:45;0.60;94.60
1988;DHT22;12775;46.994;15.498;2023-12-20T04:34:12;0.60;94.90
1988;DHT22;12775;46.994;15.498;2023-12-20T04:36:40;0.60;95.40
1988;DHT22;12775;46.994;15.498;2023-12-20T04:39:08;0.60;95.00
1988;DHT22;12775;46.994;15.498;2023-12-20T04:41:35;0.50;94.90
1988;DHT22;12775;46.994;15.498;2023-12-20T04:44:02;0.40;95.50
1988;DHT22;12775;46.994;15.498;2023-12-20T04:46:30;0.50;95.80
1988;DHT22;12775;46.994;15.498;2023-12-20T04:48:57;0.50;95.50
1988;DHT22;12775;46.994;15.498;2023-12-20T04:51:26;0.50;95.10
1988;DHT22;12775;46.994;15.498;2023-12-20T04:53:53;0.50;95.10
1988;DHT22;12775;46.994;15.498;2023-12-20T04:56:20;0.40;95.20
1988;DHT22;12775;46.994;15.498;2023-12-20T04:58:48;0.50;95.10
1988;DHT22;12775;46.994;15.498;2023-12-20T05:01:15;0.40;95.10
1988;DHT22;12775;46.994;15.498;2023-12-20T05:03:42;0.50;95.50
1988;DHT22;12775;46.994;15.498;2023-12-20T05:06:09;0.40;95.40
1988;DHT22;12775;46.994;15.498;2023-12-20T05:08:37;0.50;95.00
1988;DHT22;12775;46.994;15.498;2023-12-20T05:11:05;0.50;95.10
1988;DHT22;12775;46.994;15.498;2023-12-20T05:13:32;0.50;95.20
1988;DHT22;12775;46.994;15.498;2023-12-20T05:15:59;0.50;95.20
1988;DHT22;12775;46.994;15.498;2023-12-20T05:18:27;0.50;94.80
1988;DHT22;12775;46.994;15.498;2023-12-20T05:20:54;0.50;94.50
1988;DHT22;12775;46.994;15.498;2023-12-20T05:23:22;0.50;94.30
1988;DHT22;12775;46.994;15.498;2023-12-20T05:25:49;0.40;94.30
1988;DHT22;12775;46.994;15.498;2023-12-20T05:28:16;0.50;95.00
1988;DHT22;12775;46.994;15.498;2023-12-20T05:30:44;0.40;94.80
1988;DHT22;12775;46.994;15.498;2023-12-20T05:33:11;0.40;95.10
1988;DHT22;12775;46.994;15.498;2023-12-20T05:35:38;0.40;95.40
1988;DHT22;12775;46.994;15.498;2023-12-20T05:38:06;0.40;95.60
1988;DHT22;12775;46.994;15.498;2023-12-20T05:40:33;0.40;95.40
1988;DHT22;12775;46.994;15.498;2023-12-20T05:43:01;0.40;95.60
1988;DHT22;12775;46.994;15.498;2023-12-20T05:45:28;0.40;95.50
1988;DHT22;12775;46.994;15.498;2023-12-20T05:47:55;0.40;95.20
1988;DHT22;12775;46.994;15.498;2023-12-20T05:50:23;0.40;95.40
1988;DHT22;12775;46.994;15.498;2023-12-20T05:52:50;0.40;95.70
1988;DHT22;12775;46.994;15.498;2023-12-20T05:55:17;0.40;95.60
1988;DHT22;12775;46.994;15.498;2023-12-20T05:57:45;0.30;95.70
1988;DHT22;12775;46.994;15.498;2023-12-20T06:00:13;0.20;96.30
1988;DHT22;12775;46.994;15.498;2023-12-20T06:02:40;0.20;96.30
1988;DHT22;12775;46.994;15.498;2023-12-20T06:05:07;0.20;96.10
1988;DHT22;12775;46.994;15.498;2023-12-20T06:07:35;0.20;96.00
1988;DHT22;12775;46.994;15.498;2023-12-20T06:10:01;0.20;95.90
1988;DHT22;12775;46.994;15.498;2023-12-20T06:12:29;0.20;96.20
1988;DHT22;12775;46.994;15.498;2023-12-20T06:14:56;0.10;98.60
1988;DHT22;12775;46.994;15.498;2023-12-20T06:17:23;0.10;98.60
1988;DHT22;12775;46.994;15.498;2023-12-20T06:19:50;0.00;98.60
1988;DHT22;12775;46.994;15.498;2023-12-20T06:22:17;0.10;99.00
1988;DHT22;12775;46.994;15.498;2023-12-20T06:24:45;0.10;99.90
1988;DHT22;12775;46.994;15.498;2023-12-20T06:27:12;0.10;99.90
1988;DHT22;12775;46.994;15.498;2023-12-20T06:29:39;0.10;99.90
1988;DHT22;12775;46.994;15.498;2023-12-20T06:32:07;0.10;99.90
1988;DHT22;12775;46.994;15.498;2023-12-20T06:34:35;0.00;99.90
1988;DHT22;12775;46.994;15.498;2023-12-20T06:37:03;0.00;99.90
1988;DHT22;12775;46.994;15.498;2023-12-20T06:39:30;0.10;99.90
1988;DHT22;12775;46.994;15.498;2023-12-20T06:41:58;0.00;99.90
1988;DHT22;12775;46.994;15.498;2023-12-20T06:44:24;0.10;99.90
1988;DHT22;12775;46.994;15.498;2023-12-20T06:46:52;0.00;99.90
1988;DHT22;12775;46.994;15.498;2023-12-20T06:49:18;0.00;99.90
1988;DHT22;12775;46.994;15.498;2023-12-20T06:51:45;-0.10;99.90
1988;DHT22;12775;46.994;15.498;2023-12-20T06:54:13;0.00;99.90
1988;DHT22;12775;46.994;15.498;2023-12-20T06:56:40;-0.20;99.90
1988;DHT22;12775;46.994;15.498;2023-12-20T06:59:08;-0.20;99.90
1988;DHT22;12775;46.994;15.498;2023-12-20T07:01:35;-0.10;99.90
1988;DHT22;12775;46.994;15.498;2023-12-20T07:04:02;0.00;99.90
1988;DHT22;12775;46.994;15.498;2023-12-20T07:06:30;0.00;99.90
1988;DHT22;12775;46.994;15.498;2023-12-20T07:08:57;0.00;99.90
1988;DHT22;12775;46.994;15.498;2023-12-20T07:11:24;0.10;99.90
1988;DHT22;12775;46.994;15.498;2023-12-20T07:13:52;0.20;99.90
1988;DHT22;12775;46.994;15.498;2023-12-20T07:16:19;0.30;99.90
1988;DHT22;12775;46.994;15.498;2023-12-20T07:18:47;0.40;99.90
1988;DHT22;12775;46.994;15.498;2023-12-20T07:21:14;0.40;99.90
1988;DHT22;12775;46.994;15.498;2023-12-20T07:23:41;0.50;99.90
1988;DHT22;12775;46.994;15.498;2023-12-20T07:26:09;0.50;99.90
1988;DHT22;12775;46.994;15.498;2023-12-20T07:28:36;0.50;99.90
1988;DHT22;12775;46.994;15.498;2023-12-20T07:31:05;0.50;99.90
1988;DHT22;12775;46.994;15.498;2023-12-20T07:33:33;0.40;99.90
1988;DHT22;12775;46.994;15.498;2023-12-20T07:36:00;0.40;99.90
1988;DHT22;12775;46.994;15.498;2023-12-20T07:38:28;0.50;99.90
1988;DHT22;12775;46.994;15.498;2023-12-20T07:40:57;0.40;99.90
1988;DHT22;12775;46.994;15.498;2023-12-20T07:43:24;0.40;99.90
1988;DHT22;12775;46.994;15.498;2023-12-20T07:45:51;0.50;99.90
1988;DHT22;12775;46.994;15.498;2023-12-20T07:48:19;0.60;99.90
1988;DHT22;12775;46.994;15.498;2023-12-20T07:50:46;0.70;99.90
1988;DHT22;12775;46.994;15.498;2023-12-20T07:53:13;0.80;99.90
1988;DHT22;12775;46.994;15.498;2023-12-20T07:55:41;0.90;99.90
1988;DHT22;12775;46.994;15.498;2023-12-20T07:58:09;1.00;99.90
1988;DHT22;12775;46.994;15.498;2023-12-20T08:00:36;1.10;99.90
1988;DHT22;12775;46.994;15.498;2023-12-20T08:03:04;1.20;99.90
1988;DHT22;12775;46.994;15.498;2023-12-20T08:05:31;1.30;99.90
1988;DHT22;12775;46.994;15.498;2023-12-20T08:07:59;1.40;99.90
1988;DHT22;12775;46.994;15.498;2023-12-20T08:10:26;1.40;99.90
1988;DHT22;12775;46.994;15.498;2023-12-20T08:12:53;1.50;99.90
1988;DHT22;12775;46.994;15.498;2023-12-20T08:15:21;1.60;99.90
1988;DHT22;12775;46.994;15.498;2023-12-20T08:17:48;1.60;99.90
1988;DHT22;12775;46.994;15.498;2023-12-20T08:20:17;1.70;99.90
1988;DHT22;12775;46.994;15.498;2023-12-20T08:22:44;1.80;99.90
1988;DHT22;12775;46.994;15.498;2023-12-20T08:25:10;1.70;99.90
1988;DHT22;12775;46.994;15.498;2023-12-20T08:27:40;1.80;99.90
1988;DHT22;12775;46.994;15.498;2023-12-20T08:30:08;1.90;99.90
1988;DHT22;12775;46.994;15.498;2023-12-20T08:32:36;1.90;99.90
1988;DHT22;12775;46.994;15.498;2023-12-20T08:35:04;2.00;99.90
1988;DHT22;12775;46.994;15.498;2023-12-20T08:37:31;2.00;99.90
1988;DHT22;12775;46.994;15.498;2023-12-20T08:39:58;2.00;99.90
1988;DHT22;12775;46.994;15.498;2023-12-20T08:42:24;2.10;99.90
1988;DHT22;12775;46.994;15.498;2023-12-20T08:44:52;2.20;99.90
1988;DHT22;12775;46.994;15.498;2023-12-20T08:47:19;2.30;99.90
1988;DHT22;12775;46.994;15.498;2023-12-20T08:49:47;2.30;99.90
1988;DHT22;12775;46.994;15.498;2023-12-20T08:52:14;2.40;99.90
1988;DHT22;12775;46.994;15.498;2023-12-20T08:54:41;2.50;99.90
1988;DHT22;12775;46.994;15.498;2023-12-20T08:57:09;2.50;99.90
1988;DHT22;12775;46.994;15.498;2023-12-20T08:59:36;2.60;99.90
1988;DHT22;12775;46.994;15.498;2023-12-20T09:02:04;2.60;99.90
1988;DHT22;12775;46.994;15.498;2023-12-20T09:04:31;2.70;99.90
1988;DHT22;12775;46.994;15.498;2023-12-20T09:06:59;2.70;99.90
1988;DHT22;12775;46.994;15.498;2023-12-20T09:09:26;2.70;99.90
1988;DHT22;12775;46.994;15.498;2023-12-20T09:11:53;2.70;99.90
1988;DHT22;12775;46.994;15.498;2023-12-20T09:14:20;2.70;99.90
1988;DHT22;12775;46.994;15.498;2023-12-20T09:16:47;2.90;99.90
1988;DHT22;12775;46.994;15.498;2023-12-20T09:19:14;2.90;99.90
1988;DHT22;12775;46.994;15.498;2023-12-20T09:21:42;3.00;99.90
1988;DHT22;12775;46.994;15.498;2023-12-20T09:24:09;3.00;99.90
1988;DHT22;12775;46.994;15.498;2023-12-20T09:26:36;3.00;99.90
1988;DHT22;12775;46.994;15.498;2023-12-20T09:29:04;3.10;99.90
1988;DHT22;12775;46.994;15.498;2023-12-20T09:31:32;3.00;99.90
1988;DHT22;12775;46.994;15.498;2023-12-20T09:33:59;2.90;99.90
1988;DHT22;12775;46.994;15.498;2023-12-20T09:36:27;2.80;99.90
1988;DHT22;12775;46.994;15.498;2023-12-20T09:38:54;2.80;99.90
1988;DHT22;12775;46.994;15.498;2023-12-20T09:41:22;2.80;99.90
1988;DHT22;12775;46.994;15.498;2023-12-20T09:43:49;2.90;99.90
1988;DHT22;12775;46.994;15.498;2023-12-20T09:46:16;2.90;99.90
1988;DHT22;12775;46.994;15.498;2023-12-20T09:48:44;3.00;99.90
1988;DHT22;12775;46.994;15.498;2023-12-20T09:51:11;3.10;99.90
1988;DHT22;12775;46.994;15.498;2023-12-20T09:53:38;3.20;99.90
1988;DHT22;12775;46.994;15.498;2023-12-20T09:56:06;3.30;99.90
1988;DHT22;12775;46.994;15.498;2023-12-20T09:58:35;3.40;99.90
1988;DHT22;12775;46.994;15.498;2023-12-20T10:01:02;3.50;99.90
1988;DHT22;12775;46.994;15.498;2023-12-20T10:03:29;3.50;99.90
1988;DHT22;12775;46.994;15.498;2023-12-20T10:05:57;3.40;99.90
1988;DHT22;12775;46.994;15.498;2023-12-20T10:08:24;3.40;99.90
1988;DHT22;12775;46.994;15.498;2023-12-20T10:10:51;3.30;99.90
1988;DHT22;12775;46.994;15.498;2023-12-20T10:13:19;3.30;99.90
1988;DHT22;12775;46.994;15.498;2023-12-20T10:15:46;3.40;99.90
1988;DHT22;12775;46.994;15.498;2023-12-20T10:18:13;3.50;99.90
1988;DHT22;12775;46.994;15.498;2023-12-20T10:20:41;3.50;99.90
1988;DHT22;12775;46.994;15.498;2023-12-20T10:23:07;3.80;99.90
1988;DHT22;12775;46.994;15.498;2023-12-20T10:25:35;3.90;99.90
1988;DHT22;12775;46.994;15.498;2023-12-20T10:28:15;4.10;99.90
1988;DHT22;12775;46.994;15.498;2023-12-20T10:30:43;4.10;99.90
1988;DHT22;12775;46.994;15.498;2023-12-20T10:33:10;4.40;99.90
1988;DHT22;12775;46.994;15.498;2023-12-20T10:35:38;4.30;99.90
1988;DHT22;12775;46.994;15.498;2023-12-20T10:38:05;4.60;99.90
1988;DHT22;12775;46.994;15.498;2023-12-20T10:40:34;4.70;99.90
1988;DHT22;12775;46.994;15.498;2023-12-20T10:43:02;4.70;99.90
1988;DHT22;12775;46.994;15.498;2023-12-20T10:45:29;4.80;99.90
1988;DHT22;12775;46.994;15.498;2023-12-20T10:47:57;4.90;99.90
1988;DHT22;12775;46.994;15.498;2023-12-20T10:50:26;4.90;99.90
1988;DHT22;12775;46.994;15.498;2023-12-20T10:52:52;4.90;99.90
1988;DHT22;12775;46.994;15.498;2023-12-20T10:55:20;5.10;99.90
1988;DHT22;12775;46.994;15.498;2023-12-20T10:57:47;5.20;99.90
1988;DHT22;12775;46.994;15.498;2023-12-20T11:00:15;5.30;99.90
1988;DHT22;12775;46.994;15.498;2023-12-20T11:02:43;5.30;99.90
1988;DHT22;12775;46.994;15.498;2023-12-20T11:05:47;5.40;99.90
1988;DHT22;12775;46.994;15.498;2023-12-20T11:08:00;5.40;99.90
1988;DHT22;12775;46.994;15.498;2023-12-20T11:10:26;5.50;99.90
1988;DHT22;12775;46.994;15.498;2023-12-20T11:12:57;5.50;99.90
1988;DHT22;12775;46.994;15.498;2023-12-20T11:15:22;5.60;99.90
1988;DHT22;12775;46.994;15.498;2023-12-20T11:17:55;5.60;99.90
1988;DHT22;12775;46.994;15.498;2023-12-20T11:20:22;5.70;99.90
1988;DHT22;12775;46.994;15.498;2023-12-20T11:22:53;5.80;99.90
1988;DHT22;12775;46.994;15.498;2023-12-20T11:25:20;5.90;99.90
1988;DHT22;12775;46.994;15.498;2023-12-20T11:28:06;5.90;99.90
1988;DHT22;12775;46.994;15.498;2023-12-20T11:30:16;6.00;99.90
1988;DHT22;12775;46.994;15.498;2023-12-20T11:32:43;6.00;99.90
1988;DHT22;12775;46.994;15.498;2023-12-20T11:35:19;6.10;99.90
1988;DHT22;12775;46.994;15.498;2023-12-20T11:37:46;6.20;99.90
1988;DHT22;12775;46.994;15.498;2023-12-20T11:40:16;6.20;99.90
1988;DHT22;12775;46.994;15.498;2023-12-20T11:42:43;6.30;99.90
1988;DHT22;12775;46.994;15.498;2023-12-20T11:45:11;6.40;99.90
1988;DHT22;12775;46.994;15.498;2023-12-20T11:47:38;6.40;99.90
1988;DHT22;12775;46.994;15.498;2023-12-20T11:50:06;6.40;99.90
1988;DHT22;12775;46.994;15.498;2023-12-20T11:52:33;6.50;99.90
1988;DHT22;12775;46.994;15.498;2023-12-20T11:55:00;6.50;99.90
1988;DHT22;12775;46.994;15.498;2023-12-20T11:57:27;6.60;99.90
1988;DHT22;12775;46.994;15.498;2023-12-20T11:59:55;6.60;99.90
1988;DHT22;12775;46.994;15.498;2023-12-20T12:02:22;6.60;99.90
1988;DHT22;12775;46.994;15.498;2023-12-20T12:04:49;6.70;99.90
1988;DHT22;12775;46.994;15.498;2023-12-20T12:07:17;6.70;99.90
1988;DHT22;12775;46.994;15.498;2023-12-20T12:09:45;6.80;99.90
1988;DHT22;12775;46.994;15.498;2023-12-20T12:12:12;6.80;99.90
1988;DHT22;12775;46.994;15.498;2023-12-20T12:14:39;6.80;99.90
1988;DHT22;12775;46.994;15.498;2023-12-20T12:17:11;6.70;99.90
1988;DHT22;12775;46.994;15.498;2023-12-20T12:19:38;6.70;99.90
1988;DHT22;12775;46.994;15.498;2023-12-20T12:22:09;6.70;99.90
1988;DHT22;12775;46.994;15.498;2023-12-20T12:24:43;6.80;99.90
1988;DHT22;12775;46.994;15.498;2023-12-20T12:27:11;6.80;99.90
1988;DHT22;12775;46.994;15.498;2023-12-20T12:29:37;6.80;99.90
1988;DHT22;12775;46.994;15.498;2023-12-20T12:32:05;6.80;99.90
1988;DHT22;12775;46.994;15.498;2023-12-20T12:34:31;6.90;99.90
1988;DHT22;12775;46.994;15.498;2023-12-20T12:36:58;7.00;99.90
1988;DHT22;12775;46.994;15.498;2023-12-20T12:39:26;7.10;99.90
1988;DHT22;12775;46.994;15.498;2023-12-20T12:41:53;7.00;99.90
1988;DHT22;12775;46.994;15.498;2023-12-20T12:44:20;7.20;99.90
1988;DHT22;12775;46.994;15.498;2023-12-20T12:46:47;7.20;99.90
1988;DHT22;12775;46.994;15.498;2023-12-20T12:49:15;7.30;99.90
1988;DHT22;12775;46.994;15.498;2023-12-20T12:51:44;7.20;99.90
1988;DHT22;12775;46.994;15.498;2023-12-20T12:54:11;7.10;99.90
1988;DHT22;12775;46.994;15.498;2023-12-20T12:56:39;7.20;99.90
1988;DHT22;12775;46.994;15.498;2023-12-20T12:59:05;7.10;99.90
1988;DHT22;12775;46.994;15.498;2023-12-20T13:01:32;7.10;99.90
1988;DHT22;12775;46.994;15.498;2023-12-20T13:03:58;7.10;99.90
1988;DHT22;12775;46.994;15.498;2023-12-20T13:06:26;7.10;99.90
1988;DHT22;12775;46.994;15.498;2023-12-20T13:08:53;7.10;99.90
1988;DHT22;12775;46.994;15.498;2023-12-20T13:11:20;7.20;99.90
1988;DHT22;12775;46.994;15.498;2023-12-20T13:13:48;7.20;99.90
1988;DHT22;12775;46.994;15.498;2023-12-20T13:16:15;7.10;99.90
1988;DHT22;12775;46.994;15.498;2023-12-20T13:18:43;7.20;99.90
1988;DHT22;12775;46.994;15.498;2023-12-20T13:21:10;7.10;99.90
1988;DHT22;12775;46.994;15.498;2023-12-20T13:23:37;7.10;99.90
1988;DHT22;12775;46.994;15.498;2023-12-20T13:26:05;7.20;99.90
1988;DHT22;12775;46.994;15.498;2023-12-20T13:28:32;7.20;99.90
1988;DHT22;12775;46.994;15.498;2023-12-20T13:31:01;7.20;99.90
1988;DHT22;12775;46.994;15.498;2023-12-20T13:33:28;7.20;99.90
1988;DHT22;12775;46.994;15.498;2023-12-20T13:35:55;7.30;99.90
1988;DHT22;12775;46.994;15.498;2023-12-20T13:38:22;7.30;99.90
1988;DHT22;12775;46.994;15.498;2023-12-20T13:40:49;7.30;99.90
1988;DHT22;12775;46.994;15.498;2023-12-20T13:43:17;7.40;99.90
1988;DHT22;12775;46.994;15.498;2023-12-20T13:45:44;7.40;99.90
1988;DHT22;12775;46.994;15.498;2023-12-20T13:48:11;7.50;99.90
1988;DHT22;12775;46.994;15.498;2023-12-20T13:50:39;7.40;99.90
1988;DHT22;12775;46.994;15.498;2023-12-20T13:53:06;7.40;99.90
1988;DHT22;12775;46.994;15.498;2023-12-20T13:55:33;7.50;99.90
1988;DHT22;12775;46.994;15.498;2023-12-20T13:58:01;7.50;99.90
1988;DHT22;12775;46.994;15.498;2023-12-20T14:00:28;7.50;99.90
1988;DHT22;12775;46.994;15.498;2023-12-20T14:02:57;7.50;99.90
1988;DHT22;12775;46.994;15.498;2023-12-20T14:05:25;7.50;99.90
1988;DHT22;12775;46.994;15.498;2023-12-20T14:07:52;7.40;99.90
1988;DHT22;12775;46.994;15.498;2023-12-20T14:10:19;7.50;99.90
1988;DHT22;12775;46.994;15.498;2023-12-20T14:12:46;7.40;99.90
1988;DHT22;12775;46.994;15.498;2023-12-20T14:15:13;7.40;99.90
1988;DHT22;12775;46.994;15.498;2023-12-20T14:17:39;7.30;99.70
1988;DHT22;12775;46.994;15.498;2023-12-20T14:20:06;7.20;99.90
1988;DHT22;12775;46.994;15.498;2023-12-20T14:22:34;7.10;99.90
1988;DHT22;12775;46.994;15.498;2023-12-20T14:25:02;7.10;99.90
1988;DHT22;12775;46.994;15.498;2023-12-20T14:27:29;7.00;99.90
1988;DHT22;12775;46.994;15.498;2023-12-20T14:29:56;7.00;99.90
1988;DHT22;12775;46.994;15.498;2023-12-20T14:32:24;6.90;99.90
1988;DHT22;12775;46.994;15.498;2023-12-20T14:34:51;6.70;99.90
1988;DHT22;12775;46.994;15.498;2023-12-20T14:37:18;6.60;99.90
1988;DHT22;12775;46.994;15.498;2023-12-20T14:39:45;6.60;99.90
1988;DHT22;12775;46.994;15.498;2023-12-20T14:42:12;6.60;99.90
1988;DHT22;12775;46.994;15.498;2023-12-20T14:44:40;6.60;99.90
1988;DHT22;12775;46.994;15.498;2023-12-20T14:47:07;6.60;99.90
1988;DHT22;12775;46.994;15.498;2023-12-20T14:49:34;6.60;99.90
1988;DHT22;12775;46.994;15.498;2023-12-20T14:52:01;6.40;99.90
1988;DHT22;12775;46.994;15.498;2023-12-20T14:54:28;6.30;99.90
1988;DHT22;12775;46.994;15.498;2023-12-20T14:56:57;6.20;99.90
1988;DHT22;12775;46.994;15.498;2023-12-20T14:59:23;6.10;99.90
1988;DHT22;12775;46.994;15.498;2023-12-20T15:01:50;5.90;99.90
1988;DHT22;12775;46.994;15.498;2023-12-20T15:04:18;5.70;99.90
1988;DHT22;12775;46.994;15.498;2023-12-20T15:06:45;5.60;99.90
1988;DHT22;12775;46.994;15.498;2023-12-20T15:09:12;5.50;99.90
1988;DHT22;12775;46.994;15.498;2023-12-20T15:11:40;5.50;99.90
1988;DHT22;12775;46.994;15.498;2023-12-20T15:14:08;5.40;99.90
1988;DHT22;12775;46.994;15.498;2023-12-20T15:16:36;5.10;99.90
1988;DHT22;12775;46.994;15.498;2023-12-20T15:19:03;5.00;99.90
1988;DHT22;12775;46.994;15.498;2023-12-20T15:21:30;5.00;99.90
1988;DHT22;12775;46.994;15.498;2023-12-20T15:23:58;5.00;99.90
1988;DHT22;12775;46.994;15.498;2023-12-20T15:26:37;4.90;99.90
1988;DHT22;12775;46.994;15.498;2023-12-20T15:29:01;4.90;99.90
1988;DHT22;12775;46.994;15.498;2023-12-20T15:31:28;4.90;99.90
1988;DHT22;12775;46.994;15.498;2023-12-20T15:33:55;4.70;99.90
1988;DHT22;12775;46.994;15.498;2023-12-20T15:36:22;4.70;99.90
1988;DHT22;12775;46.994;15.498;2023-12-20T15:38:50;4.50;99.90
1988;DHT22;12775;46.994;15.498;2023-12-20T15:41:17;4.50;99.90
1988;DHT22;12775;46.994;15.498;2023-12-20T15:43:45;4.50;99.90
1988;DHT22;12775;46.994;15.498;2023-12-20T15:46:13;4.50;99.90